createdAt,value
2023-05-23T00:01:19.132Z,30.33
2023-05-23T00:03:47.412Z,25.33
2023-05-23T00:06:15.743Z,25.02
2023-05-23T00:08:45.025Z,23.30
2023-05-23T00:11:13.366Z,23.65
2023-05-23T00:13:41.341Z,21.25
2023-05-23T00:16:10.682Z,23.40
2023-05-23T00:18:40.177Z,18.60
2023-05-23T00:21:08.150Z,16.67
2023-05-23T00:23:36.279Z,18.08
2023-05-23T00:26:05.653Z,13.82
2023-05-23T00:28:33.571Z,15.95
2023-05-23T00:31:01.547Z,20.00
2023-05-23T00:33:29.796Z,20.90
2023-05-23T00:35:57.719Z,20.58
2023-05-23T00:38:26.781Z,23.90
2023-05-23T00:40:54.773Z,25.60
2023-05-23T00:43:24.063Z,24.42
2023-05-23T00:45:52.029Z,24.83
2023-05-23T00:48:20.122Z,21.63
2023-05-23T00:50:48.165Z,31.20
2023-05-23T00:53:16.992Z,26.50
2023-05-23T00:55:46.208Z,24.50
2023-05-23T00:58:15.945Z,28.65
2023-05-23T01:00:46.245Z,23.50
2023-05-23T01:03:18.157Z,27.65
2023-05-23T01:05:46.547Z,27.60
2023-05-23T01:08:15.689Z,22.55
2023-05-23T01:10:43.954Z,28.25
2023-05-23T01:13:24.920Z,27.70
2023-05-23T01:16:11.277Z,23.65
2023-05-23T01:18:42.341Z,22.75
2023-05-23T01:21:17.135Z,26.33
2023-05-23T01:24:12.950Z,21.17
2023-05-23T01:26:50.780Z,20.98
2023-05-23T01:29:23.929Z,28.15
2023-05-23T01:31:55.590Z,25.25
2023-05-23T01:34:23.770Z,25.50
2023-05-23T01:36:56.006Z,23.25
2023-05-23T01:39:24.548Z,21.05
2023-05-23T01:41:53.723Z,28.25
2023-05-23T01:44:23.627Z,23.48
2023-05-23T01:46:51.760Z,25.73
2023-05-23T01:49:20.601Z,21.45
2023-05-23T01:51:49.501Z,18.48
2023-05-23T01:54:19.739Z,21.73
2023-05-23T01:56:49.258Z,26.60
2023-05-23T01:59:17.288Z,17.65
2023-05-23T02:01:47.018Z,25.35
2023-05-23T02:04:15.796Z,25.50
2023-05-23T02:06:43.753Z,24.70
2023-05-23T02:09:11.703Z,23.35
2023-05-23T02:11:39.609Z,27.27
2023-05-23T02:14:08.450Z,28.35
2023-05-23T02:16:36.669Z,23.77
2023-05-23T02:19:06.473Z,21.50
2023-05-23T02:21:35.570Z,21.50
2023-05-23T02:24:03.788Z,20.75
2023-05-23T02:26:31.820Z,23.50
2023-05-23T02:28:59.807Z,21.65
2023-05-23T02:31:28.125Z,23.73
2023-05-23T02:33:56.140Z,26.63
2023-05-23T02:36:25.390Z,18.13
2023-05-23T02:38:53.378Z,22.33
2023-05-23T02:41:21.279Z,22.45
2023-05-23T02:43:49.208Z,25.48
2023-05-23T02:46:17.168Z,20.17
2023-05-23T02:48:45.375Z,20.88
2023-05-23T02:51:14.242Z,26.83
2023-05-23T02:53:43.573Z,22.08
2023-05-23T02:56:11.748Z,20.50
2023-05-23T02:58:40.040Z,21.95
2023-05-23T03:01:08.596Z,21.90
2023-05-23T03:03:36.747Z,21.92
2023-05-23T03:06:06.294Z,21.65
2023-05-23T03:08:34.253Z,23.23
2023-05-23T03:11:03.955Z,24.70
2023-05-23T03:13:32.147Z,23.50
2023-05-23T03:16:00.130Z,23.90
2023-05-23T03:18:28.096Z,20.55
2023-05-23T03:20:56.017Z,19.70
2023-05-23T03:23:23.952Z,17.40
2023-05-23T03:25:51.905Z,14.55
2023-05-23T03:28:21.185Z,15.10
2023-05-23T03:30:49.052Z,15.50
2023-05-23T03:33:17.008Z,16.75
2023-05-23T03:35:45.872Z,19.45
2023-05-23T03:38:13.801Z,13.75
2023-05-23T03:40:41.779Z,18.58
2023-05-23T03:43:10.538Z,16.23
2023-05-23T03:45:40.159Z,21.40
2023-05-23T03:48:08.307Z,15.23
2023-05-23T03:50:36.410Z,16.60
2023-05-23T03:53:04.370Z,16.27
2023-05-23T03:55:33.037Z,16.85
2023-05-23T03:58:01.050Z,17.08
2023-05-23T04:00:29.012Z,17.65
2023-05-23T04:02:58.392Z,18.88
2023-05-23T04:05:26.900Z,18.88
2023-05-23T04:07:54.829Z,14.65
2023-05-23T04:10:22.760Z,15.98
2023-05-23T04:12:51.591Z,16.17
2023-05-23T04:15:21.407Z,18.10
2023-05-23T04:17:49.406Z,15.18
2023-05-23T04:20:18.761Z,18.52
2023-05-23T04:22:46.744Z,16.75
2023-05-23T04:25:14.721Z,18.05
2023-05-23T04:27:42.672Z,19.17
2023-05-23T04:30:11.628Z,22.15
2023-05-23T04:32:40.170Z,21.50
2023-05-23T04:35:08.907Z,15.70
2023-05-23T04:37:39.663Z,21.48
2023-05-23T04:40:08.993Z,22.38
2023-05-23T04:42:37.191Z,17.88
2023-05-23T04:45:05.893Z,16.85
2023-05-23T04:47:37.047Z,18.08
2023-05-23T04:50:05.705Z,22.42
2023-05-23T04:52:34.077Z,17.83
2023-05-23T04:55:04.166Z,19.80
2023-05-23T04:57:32.318Z,21.15
2023-05-23T05:00:01.159Z,25.30
2023-05-23T05:02:33.762Z,19.08
2023-05-23T05:05:01.919Z,20.15
2023-05-23T05:07:30.320Z,20.35
2023-05-23T05:10:00.898Z,20.73
2023-05-23T05:12:30.655Z,21.65
2023-05-23T05:14:58.634Z,20.10
2023-05-23T05:17:26.814Z,19.67
2023-05-23T05:19:54.757Z,14.35
2023-05-23T05:22:23.302Z,17.88
2023-05-23T05:24:51.204Z,17.05
2023-05-23T05:27:19.166Z,18.77
2023-05-23T05:29:50.005Z,21.15
2023-05-23T05:32:18.356Z,18.27
2023-05-23T05:34:49.166Z,20.27
2023-05-23T05:37:17.533Z,15.95
2023-05-23T05:39:45.513Z,15.77
2023-05-23T05:42:13.401Z,16.30
2023-05-23T05:44:41.281Z,15.70
2023-05-23T05:47:10.572Z,14.13
2023-05-23T05:49:38.519Z,11.93
2023-05-23T05:52:07.997Z,12.55
2023-05-23T05:54:36.108Z,12.57
2023-05-23T05:57:04.026Z,13.05
2023-05-23T05:59:32.729Z,20.38
2023-05-23T06:02:00.732Z,16.63
2023-05-23T06:04:30.093Z,13.50
2023-05-23T06:06:58.021Z,9.88
2023-05-23T06:09:25.999Z,12.82
2023-05-23T06:11:53.906Z,11.27
2023-05-23T06:14:21.778Z,10.82
2023-05-23T06:16:50.106Z,17.58
2023-05-23T06:19:18.085Z,10.60
2023-05-23T06:21:47.304Z,10.82
2023-05-23T06:24:15.291Z,10.32
2023-05-23T06:26:43.189Z,11.35
2023-05-23T06:29:11.058Z,11.30
2023-05-23T06:31:39.046Z,6.68
2023-05-23T06:34:06.943Z,8.77
2023-05-23T06:36:34.849Z,13.98
2023-05-23T06:39:04.077Z,10.32
2023-05-23T06:41:31.978Z,14.32
2023-05-23T06:43:59.868Z,12.05
2023-05-23T06:46:27.817Z,15.30
2023-05-23T06:49:06.453Z,12.27
2023-05-23T06:51:34.871Z,15.07
2023-05-23T06:54:04.176Z,13.68
2023-05-23T06:56:32.116Z,16.92
2023-05-23T06:59:00.036Z,17.48
2023-05-23T07:01:28.070Z,18.88
2023-05-23T07:03:55.958Z,14.32
2023-05-23T07:06:23.867Z,19.58
2023-05-23T07:08:51.751Z,19.45
2023-05-23T07:11:22.166Z,15.60
2023-05-23T07:13:50.078Z,19.20
2023-05-23T07:16:18.386Z,21.98
2023-05-23T07:18:46.396Z,13.43
2023-05-23T07:21:14.304Z,16.75
2023-05-23T07:23:42.360Z,18.83
2023-05-23T07:26:10.443Z,13.15
2023-05-23T07:28:39.702Z,13.18
2023-05-23T07:31:09.262Z,23.60
2023-05-23T07:33:37.307Z,22.02
2023-05-23T07:36:05.602Z,18.42
2023-05-23T07:38:33.483Z,16.17
2023-05-23T07:41:10.622Z,16.70
2023-05-23T07:43:41.481Z,17.88
2023-05-23T07:46:09.558Z,18.23
2023-05-23T07:48:37.542Z,15.50
2023-05-23T07:51:05.971Z,21.65
2023-05-23T07:53:33.886Z,16.35
2023-05-23T07:56:02.659Z,20.92
2023-05-23T07:58:30.549Z,16.85
2023-05-23T08:00:59.911Z,15.32
2023-05-23T08:03:27.869Z,21.38
2023-05-23T08:05:56.048Z,19.08
2023-05-23T08:08:23.956Z,25.42
2023-05-23T08:10:51.861Z,15.20
2023-05-23T08:13:19.936Z,14.82
2023-05-23T08:15:47.786Z,17.17
2023-05-23T08:18:18.159Z,14.10
2023-05-23T08:20:46.259Z,19.30
2023-05-23T08:23:14.311Z,18.95
2023-05-23T08:25:42.164Z,18.67
2023-05-23T08:28:10.085Z,17.00
2023-05-23T08:30:38.133Z,16.20
2023-05-23T08:33:07.192Z,17.77
2023-05-23T08:35:36.855Z,15.98
2023-05-23T08:38:07.946Z,18.30
2023-05-23T08:40:36.896Z,14.68
2023-05-23T08:43:05.498Z,14.82
2023-05-23T08:45:34.844Z,14.55
2023-05-23T08:48:04.063Z,18.52
2023-05-23T08:50:32.777Z,15.05
2023-05-23T08:53:02.678Z,14.77
2023-05-23T08:55:31.517Z,17.90
2023-05-23T08:58:00.382Z,19.80
2023-05-23T09:00:29.263Z,19.38
2023-05-23T09:02:58.175Z,10.75
2023-05-23T09:05:28.328Z,15.02
2023-05-23T09:07:56.912Z,16.52
2023-05-23T09:10:29.854Z,14.95
2023-05-23T09:12:58.409Z,15.63
2023-05-23T09:15:27.419Z,18.38
2023-05-23T09:18:00.402Z,13.15
2023-05-23T09:20:29.523Z,15.95
2023-05-23T09:22:57.725Z,11.70
2023-05-23T09:25:27.023Z,15.35
2023-05-23T09:27:56.577Z,14.32
2023-05-23T09:30:24.547Z,15.07
2023-05-23T09:33:04.796Z,17.02
2023-05-23T09:35:33.720Z,16.63
2023-05-23T09:38:01.754Z,12.60
2023-05-23T09:40:34.471Z,17.10
2023-05-23T09:43:07.509Z,10.93
2023-05-23T09:45:36.125Z,14.18
2023-05-23T09:48:04.187Z,14.48
2023-05-23T09:50:34.141Z,17.33
2023-05-23T09:53:02.256Z,15.55
2023-05-23T09:55:30.247Z,15.20
2023-05-23T09:58:00.885Z,14.60
2023-05-23T10:00:29.660Z,11.55
2023-05-23T10:03:08.106Z,14.18
2023-05-23T10:05:39.236Z,15.50
2023-05-23T10:08:11.985Z,16.00
2023-05-23T10:11:32.829Z,14.35
2023-05-23T10:14:03.431Z,15.85
2023-05-23T10:16:40.253Z,17.38
2023-05-23T10:19:14.423Z,15.70
2023-05-23T10:21:46.875Z,16.63
2023-05-23T10:24:15.271Z,16.95
2023-05-23T10:26:44.602Z,23.30
2023-05-23T10:29:13.940Z,15.82
2023-05-23T10:31:42.607Z,20.75
2023-05-23T10:34:19.965Z,13.90
2023-05-23T10:36:58.331Z,12.43
2023-05-23T10:39:41.079Z,13.82
2023-05-23T10:42:14.328Z,13.18
2023-05-23T10:44:43.706Z,13.68
2023-05-23T10:47:13.018Z,13.50
2023-05-23T10:49:43.715Z,11.68
2023-05-23T10:52:13.593Z,13.05
2023-05-23T10:54:45.969Z,12.65
2023-05-23T10:57:17.693Z,12.57
2023-05-23T10:59:47.943Z,11.57
2023-05-23T11:02:19.184Z,12.57
2023-05-23T11:04:48.334Z,14.20
2023-05-23T11:07:30.733Z,11.40
2023-05-23T11:10:05.975Z,9.70
2023-05-23T11:12:42.218Z,12.27
2023-05-23T11:15:24.010Z,16.80
2023-05-23T11:17:54.225Z,9.93
2023-05-23T11:20:27.210Z,10.80
2023-05-23T11:22:56.126Z,13.07
2023-05-23T11:25:41.867Z,16.08
2023-05-23T11:28:10.200Z,11.18
2023-05-23T11:30:40.482Z,10.68
2023-05-23T11:33:11.655Z,14.55
2023-05-23T11:35:39.675Z,16.92
2023-05-23T11:38:07.730Z,15.07
2023-05-23T11:40:36.777Z,16.63
2023-05-23T11:43:06.409Z,10.98
2023-05-23T11:45:35.301Z,16.00
2023-05-23T11:48:08.820Z,21.00
2023-05-23T11:50:45.225Z,16.88
2023-05-23T11:53:13.307Z,11.18
2023-05-23T11:55:42.196Z,13.00
2023-05-23T11:58:11.387Z,12.65
2023-05-23T12:00:45.105Z,15.40
2023-05-23T12:03:14.813Z,14.20
2023-05-23T12:05:44.963Z,14.48
2023-05-23T12:08:14.842Z,15.93
2023-05-23T12:10:51.675Z,13.27
2023-05-23T12:13:19.673Z,16.92
2023-05-23T12:15:48.043Z,17.58
2023-05-23T12:18:20.913Z,12.25
2023-05-23T12:20:50.389Z,16.90
2023-05-23T12:23:22.410Z,14.25
2023-05-23T12:25:55.158Z,15.50
2023-05-23T12:28:35.527Z,12.32
2023-05-23T12:31:10.935Z,14.27
2023-05-23T12:33:43.801Z,10.32
2023-05-23T12:36:12.053Z,14.43
2023-05-23T12:38:40.979Z,12.30
2023-05-23T12:41:10.041Z,13.52
2023-05-23T12:43:39.842Z,12.68
2023-05-23T12:46:07.910Z,10.88
2023-05-23T12:48:35.883Z,10.57
2023-05-23T12:51:05.692Z,9.48
2023-05-23T12:53:33.613Z,11.13
2023-05-23T12:56:01.619Z,11.13
2023-05-23T12:58:31.380Z,12.13
2023-05-23T13:00:59.612Z,16.67
2023-05-23T13:03:27.629Z,10.90
2023-05-23T13:05:55.842Z,8.02
2023-05-23T13:08:25.075Z,8.75
2023-05-23T13:10:54.915Z,12.23
2023-05-23T13:13:22.988Z,11.68
2023-05-23T13:15:51.782Z,10.73
2023-05-23T13:18:20.074Z,12.27
2023-05-23T13:20:48.167Z,13.40
2023-05-23T13:23:16.249Z,12.57
2023-05-23T13:25:45.542Z,9.35
2023-05-23T13:28:14.012Z,10.10
2023-05-23T13:30:44.231Z,9.88
2023-05-23T13:33:13.908Z,9.73
2023-05-23T13:35:42.168Z,9.30
2023-05-23T13:38:10.319Z,10.48
2023-05-23T13:40:38.284Z,12.70
2023-05-23T13:43:07.563Z,7.80
2023-05-23T13:45:35.512Z,14.73
2023-05-23T13:48:03.492Z,8.63
2023-05-23T13:50:31.496Z,9.38
2023-05-23T13:52:59.429Z,11.10
2023-05-23T13:55:27.767Z,9.68
2023-05-23T13:57:55.741Z,9.52
2023-05-23T14:00:25.423Z,11.65
2023-05-23T14:02:53.379Z,11.07
2023-05-23T14:05:21.546Z,7.38
2023-05-23T14:07:49.620Z,8.30
2023-05-23T14:10:18.224Z,8.32
2023-05-23T14:12:46.272Z,10.95
2023-05-23T14:15:14.514Z,9.18
2023-05-23T14:17:43.925Z,9.32
2023-05-23T14:20:12.877Z,8.68
2023-05-23T14:22:40.907Z,9.45
2023-05-23T14:25:09.611Z,7.50
2023-05-23T14:27:37.598Z,8.68
2023-05-23T14:30:06.777Z,8.43
2023-05-23T14:32:38.856Z,9.80
2023-05-23T14:35:11.073Z,6.88
2023-05-23T14:37:39.365Z,11.27
2023-05-23T14:40:09.953Z,9.85
2023-05-23T14:42:38.024Z,7.95
2023-05-23T14:45:07.619Z,8.68
2023-05-23T14:47:37.292Z,8.43
2023-05-23T14:50:05.713Z,8.95
2023-05-23T14:52:34.972Z,8.25
2023-05-23T14:55:02.917Z,7.53
2023-05-23T14:57:30.905Z,9.40
2023-05-23T14:59:58.894Z,8.02
2023-05-23T15:02:26.931Z,7.78
2023-05-23T15:04:54.938Z,10.25
2023-05-23T15:07:23.169Z,9.82
2023-05-23T15:09:52.955Z,11.77
2023-05-23T15:12:21.046Z,7.32
2023-05-23T15:14:49.422Z,8.40
2023-05-23T15:17:20.239Z,11.10
2023-05-23T15:19:48.415Z,9.32
2023-05-23T15:22:34.330Z,7.38
2023-05-23T15:25:06.743Z,8.55
2023-05-23T15:27:34.660Z,10.90
2023-05-23T15:30:02.753Z,8.23
2023-05-23T15:32:30.868Z,9.90
2023-05-23T15:34:58.949Z,10.13
2023-05-23T15:37:26.874Z,9.38
2023-05-23T15:39:54.732Z,9.05
2023-05-23T15:42:24.059Z,8.52
2023-05-23T15:44:52.117Z,7.63
2023-05-23T15:47:20.704Z,7.40
2023-05-23T15:49:48.617Z,10.55
2023-05-23T15:52:16.578Z,8.05
2023-05-23T15:54:44.515Z,8.25
2023-05-23T15:57:12.477Z,6.72
2023-05-23T15:59:41.739Z,6.88
2023-05-23T16:02:10.288Z,7.72
2023-05-23T16:04:38.944Z,8.60
2023-05-23T16:07:06.892Z,8.93
2023-05-23T16:09:34.949Z,9.30
2023-05-23T16:12:02.922Z,7.35
2023-05-23T16:14:31.778Z,8.20
2023-05-23T16:17:02.735Z,12.20
2023-05-23T16:19:30.925Z,7.20
2023-05-23T16:21:58.917Z,10.45
2023-05-23T16:24:28.104Z,8.98
2023-05-23T16:26:56.231Z,8.70
2023-05-23T16:29:24.206Z,7.03
2023-05-23T16:31:52.272Z,9.60
2023-05-23T16:34:21.617Z,8.43
2023-05-23T16:36:49.630Z,8.40
2023-05-23T16:39:17.609Z,7.22
2023-05-23T16:41:45.627Z,9.90
2023-05-23T16:44:13.685Z,13.00
2023-05-23T16:46:41.880Z,9.77
2023-05-23T16:49:10.966Z,10.50
2023-05-23T16:51:40.323Z,8.55
2023-05-23T16:54:09.466Z,7.20
2023-05-23T16:56:38.906Z,5.97
2023-05-23T16:59:06.956Z,8.48
2023-05-23T17:01:35.142Z,14.27
2023-05-23T17:04:03.789Z,8.27
2023-05-23T17:06:32.393Z,6.43
2023-05-23T17:09:01.763Z,8.60
2023-05-23T17:11:29.685Z,12.30
2023-05-23T17:13:57.611Z,10.43
2023-05-23T17:16:25.672Z,7.22
2023-05-23T17:18:53.761Z,5.85
2023-05-23T17:21:21.774Z,6.15
2023-05-23T17:23:49.669Z,8.55
2023-05-23T17:26:19.836Z,6.40
2023-05-23T17:28:48.053Z,9.43
2023-05-23T17:31:16.338Z,7.20
2023-05-23T17:33:44.452Z,9.82
2023-05-23T17:36:12.710Z,10.13
2023-05-23T17:38:40.684Z,8.80
2023-05-23T17:41:09.227Z,10.23
2023-05-23T17:43:38.505Z,8.32
2023-05-23T17:46:06.533Z,7.88
2023-05-23T17:48:46.365Z,8.20
2023-05-23T17:51:15.380Z,12.07
2023-05-23T17:53:43.631Z,6.72
2023-05-23T17:56:13.996Z,9.52
2023-05-23T17:58:44.362Z,7.00
2023-05-23T18:01:13.647Z,9.75
2023-05-23T18:03:41.789Z,8.27
2023-05-23T18:06:10.039Z,12.05
2023-05-23T18:08:39.055Z,8.55
2023-05-23T18:11:07.061Z,8.48
2023-05-23T18:13:35.041Z,10.00
2023-05-23T18:16:04.392Z,9.75
2023-05-23T18:18:32.508Z,8.93
2023-05-23T18:21:00.809Z,7.95
2023-05-23T18:23:28.788Z,9.60
2023-05-23T18:25:56.881Z,10.02
2023-05-23T18:28:25.081Z,9.82
2023-05-23T18:30:53.041Z,11.00
2023-05-23T18:33:22.750Z,7.32
2023-05-23T18:35:51.510Z,12.35
2023-05-23T18:38:19.465Z,9.40
2023-05-23T18:40:47.504Z,7.15
2023-05-23T18:43:17.296Z,11.45
2023-05-23T18:45:45.456Z,9.30
2023-05-23T18:48:13.652Z,10.55
2023-05-23T18:50:43.365Z,9.98
2023-05-23T18:53:11.623Z,10.60
2023-05-23T18:55:39.605Z,13.10
2023-05-23T18:58:07.617Z,8.88
2023-05-23T19:00:35.717Z,9.32
2023-05-23T19:03:03.716Z,8.45
2023-05-23T19:05:31.640Z,11.35
2023-05-23T19:08:00.961Z,16.33
2023-05-23T19:10:28.938Z,10.13
2023-05-23T19:12:56.880Z,13.20
2023-05-23T19:15:24.888Z,8.52
2023-05-23T19:17:52.886Z,9.23
2023-05-23T19:20:20.856Z,12.18
2023-05-23T19:22:51.804Z,14.93
2023-05-23T19:25:21.558Z,10.13
2023-05-23T19:27:49.581Z,12.73
2023-05-23T19:30:17.513Z,9.98
2023-05-23T19:32:45.591Z,12.48
2023-05-23T19:35:16.525Z,8.60
2023-05-23T19:37:45.228Z,9.43
2023-05-23T19:40:14.022Z,10.05
2023-05-23T19:42:43.419Z,11.43
2023-05-23T19:45:12.206Z,13.10
2023-05-23T19:47:40.620Z,12.07
2023-05-23T19:50:11.114Z,9.65
2023-05-23T19:52:39.123Z,12.38
2023-05-23T19:55:08.418Z,14.88
2023-05-23T19:57:36.482Z,16.75
2023-05-23T20:00:07.127Z,10.52
2023-05-23T20:02:35.137Z,14.88
2023-05-23T20:05:03.319Z,10.85
2023-05-23T20:07:32.647Z,12.32
2023-05-23T20:10:00.757Z,11.88
2023-05-23T20:12:28.774Z,16.42
2023-05-23T20:14:57.431Z,13.88
2023-05-23T20:17:26.817Z,11.40
2023-05-23T20:19:54.977Z,12.38
2023-05-23T20:22:23.058Z,10.38
2023-05-23T20:24:51.161Z,11.35
2023-05-23T20:27:19.289Z,10.43
2023-05-23T20:29:47.477Z,13.02
2023-05-23T20:32:15.519Z,11.15
2023-05-23T20:34:44.931Z,13.55
2023-05-23T20:37:13.922Z,11.05
2023-05-23T20:39:42.384Z,11.45
2023-05-23T20:42:11.352Z,15.07
2023-05-23T20:44:39.394Z,11.23
2023-05-23T20:47:07.694Z,13.93
2023-05-23T20:49:37.296Z,12.38
2023-05-23T20:52:06.675Z,14.77
2023-05-23T20:54:35.421Z,13.50
2023-05-23T20:57:03.838Z,14.18
2023-05-23T20:59:31.797Z,13.73
2023-05-23T21:01:59.809Z,11.13
2023-05-23T21:04:27.791Z,12.30
2023-05-23T21:06:55.727Z,8.52
2023-05-23T21:09:25.076Z,11.93
2023-05-23T21:11:53.040Z,14.98
2023-05-23T21:14:20.980Z,13.20
2023-05-23T21:16:48.951Z,13.15
2023-05-23T21:19:16.988Z,13.13
2023-05-23T21:21:44.987Z,15.05
2023-05-23T21:24:14.171Z,16.75
2023-05-23T21:26:43.552Z,14.95
2023-05-23T21:29:11.791Z,13.48
2023-05-23T21:31:41.827Z,14.18
2023-05-23T21:34:21.600Z,11.68
2023-05-23T21:36:50.099Z,13.07
2023-05-23T21:39:17.995Z,14.85
2023-05-23T21:41:47.370Z,20.15
2023-05-23T21:44:17.482Z,14.38
2023-05-23T21:46:45.622Z,13.90
2023-05-23T21:49:13.869Z,12.10
2023-05-23T21:51:42.256Z,13.63
2023-05-23T21:54:10.371Z,10.18
2023-05-23T21:56:38.396Z,18.27
2023-05-23T21:59:07.802Z,14.70
2023-05-23T22:01:35.793Z,14.07
2023-05-23T22:04:03.829Z,12.35
2023-05-23T22:06:33.246Z,11.45
2023-05-23T22:09:01.248Z,16.65
2023-05-23T22:11:33.835Z,13.30
2023-05-23T22:14:02.113Z,16.88
2023-05-23T22:16:32.856Z,13.38
2023-05-23T22:19:02.060Z,16.48
2023-05-23T22:21:30.191Z,17.67
2023-05-23T22:23:58.643Z,12.60
2023-05-23T22:26:26.920Z,13.32
2023-05-23T22:28:54.987Z,13.32
2023-05-23T22:31:23.887Z,18.75
2023-05-23T22:33:53.581Z,13.02
2023-05-23T22:36:23.307Z,15.68
2023-05-23T22:38:51.273Z,16.20
2023-05-23T22:41:19.603Z,15.98
2023-05-23T22:43:47.796Z,17.63
2023-05-23T22:46:15.879Z,15.93
2023-05-23T22:48:45.072Z,14.85
2023-05-23T22:51:14.761Z,13.25
2023-05-23T22:53:43.351Z,16.48
2023-05-23T22:56:11.344Z,12.82
2023-05-23T22:58:39.339Z,15.25
2023-05-23T23:01:07.362Z,12.55
2023-05-23T23:03:35.539Z,15.90
2023-05-23T23:06:05.998Z,12.77
2023-05-23T23:08:35.354Z,10.23
2023-05-23T23:11:03.329Z,12.30
2023-05-23T23:13:31.480Z,12.70
2023-05-23T23:15:59.678Z,12.68
2023-05-23T23:18:27.848Z,14.55
2023-05-23T23:20:56.280Z,15.50
2023-05-23T23:23:24.329Z,15.52
2023-05-23T23:25:53.589Z,16.38
2023-05-23T23:28:21.863Z,14.73
2023-05-23T23:30:49.872Z,13.05
2023-05-23T23:33:17.918Z,15.35
2023-05-23T23:35:48.503Z,15.23
2023-05-23T23:38:16.896Z,15.23
2023-05-23T23:40:45.702Z,14.55
2023-05-23T23:43:15.196Z,23.80
2023-05-23T23:45:43.218Z,14.98
2023-05-23T23:48:13.798Z,13.82
2023-05-23T23:50:42.006Z,12.68
2023-05-23T23:53:10.131Z,15.93
2023-05-23T23:55:38.060Z,16.65
2023-05-23T23:58:06.181Z,16.63
